createdAt,value
2018-03-26T00:00:51.661Z,33.15
2018-03-26T00:03:18.289Z,33.72
2018-03-26T00:05:45.049Z,29.25
2018-03-26T00:08:11.680Z,28.02
2018-03-26T00:10:38.429Z,28.60
2018-03-26T00:13:05.161Z,27.70
2018-03-26T00:15:31.803Z,28.05
2018-03-26T00:17:58.549Z,26.65
2018-03-26T00:20:25.284Z,30.15
2018-03-26T00:22:51.925Z,28.92
2018-03-26T00:25:18.569Z,28.02
2018-03-26T00:27:45.191Z,28.20
2018-03-26T00:30:11.832Z,26.70
2018-03-26T00:32:38.466Z,28.85
2018-03-26T00:35:05.106Z,28.23
2018-03-26T00:37:31.773Z,30.90
2018-03-26T00:39:58.400Z,28.95
2018-03-26T00:42:25.040Z,30.55
2018-03-26T00:44:51.672Z,30.73
2018-03-26T00:47:18.315Z,32.58
2018-03-26T00:49:44.955Z,31.05
2018-03-26T00:52:11.652Z,30.35
2018-03-26T00:54:38.338Z,31.12
2018-03-26T00:57:05.082Z,30.70
2018-03-26T00:59:31.708Z,32.55
2018-03-26T01:01:58.354Z,30.58
2018-03-26T01:04:25.115Z,30.23
2018-03-26T01:06:51.840Z,28.55
2018-03-26T01:09:18.473Z,29.63
2018-03-26T01:11:45.223Z,30.37
2018-03-26T01:14:11.968Z,30.25
2018-03-26T01:16:38.614Z,34.03
2018-03-26T01:19:05.250Z,32.25
2018-03-26T01:21:31.904Z,30.10
2018-03-26T01:23:58.534Z,31.20
2018-03-26T01:26:25.180Z,27.85
2018-03-26T01:28:51.813Z,30.50
2018-03-26T01:31:18.536Z,30.27
2018-03-26T01:33:45.176Z,31.30
2018-03-26T01:36:11.911Z,27.98
2018-03-26T01:38:38.652Z,30.27
2018-03-26T01:41:05.280Z,28.20
2018-03-26T01:43:31.919Z,30.00
2018-03-26T01:45:58.548Z,31.00
2018-03-26T01:48:25.217Z,29.15
2018-03-26T01:50:51.881Z,30.20
2018-03-26T01:53:18.520Z,29.30
2018-03-26T01:55:45.144Z,29.23
2018-03-26T01:58:11.785Z,30.90
2018-03-26T02:00:38.413Z,28.15
2018-03-26T02:03:05.075Z,28.17
2018-03-26T02:05:31.794Z,31.00
2018-03-26T02:07:58.441Z,28.48
2018-03-26T02:10:25.063Z,28.77
2018-03-26T02:12:51.718Z,28.30
2018-03-26T02:17:49.325Z,29.98
2018-03-26T02:20:15.972Z,29.17
2018-03-26T02:22:42.694Z,30.12
2018-03-26T02:25:09.408Z,28.98
2018-03-26T02:27:36.035Z,29.27
2018-03-26T02:30:02.816Z,28.83
2018-03-26T02:32:29.542Z,30.27
2018-03-26T02:34:57.093Z,30.50
2018-03-26T02:37:23.729Z,28.58
2018-03-26T02:39:50.471Z,27.42
2018-03-26T02:42:17.225Z,27.17
2018-03-26T02:44:43.869Z,31.90
2018-03-26T02:47:10.507Z,28.83
2018-03-26T02:49:37.241Z,27.48
2018-03-26T02:52:03.885Z,28.35
2018-03-26T02:54:30.616Z,28.33
2018-03-26T02:56:57.357Z,30.10
2018-03-26T02:59:24.001Z,31.98
2018-03-26T03:01:50.643Z,29.25
2018-03-26T03:04:17.287Z,31.20
2018-03-26T03:06:43.916Z,31.48
2018-03-26T03:09:10.552Z,31.92
2018-03-26T03:11:37.183Z,28.83
2018-03-26T03:14:03.805Z,29.25
2018-03-26T03:16:30.470Z,29.23
2018-03-26T03:18:57.095Z,27.20
2018-03-26T03:21:23.849Z,28.92
2018-03-26T03:23:50.599Z,27.92
2018-03-26T03:26:17.332Z,27.50
2018-03-26T03:28:43.962Z,29.17
2018-03-26T03:31:10.600Z,28.60
2018-03-26T03:33:37.254Z,29.75
2018-03-26T03:36:04.015Z,28.92
2018-03-26T03:38:30.734Z,29.98
2018-03-26T03:40:57.381Z,27.55
2018-03-26T03:43:24.013Z,27.98
2018-03-26T03:45:50.753Z,26.70
2018-03-26T03:48:17.416Z,30.48
2018-03-26T03:50:44.061Z,29.60
2018-03-26T03:53:10.689Z,28.52
2018-03-26T03:55:37.343Z,28.27
2018-03-26T03:58:04.057Z,31.08
2018-03-26T04:00:30.688Z,31.10
2018-03-26T04:02:57.320Z,28.25
2018-03-26T04:05:23.974Z,30.30
2018-03-26T04:07:50.616Z,30.65
2018-03-26T04:10:17.249Z,29.33
2018-03-26T04:12:43.987Z,29.48
2018-03-26T04:15:10.612Z,28.38
2018-03-26T04:17:37.257Z,29.33
2018-03-26T04:20:03.886Z,28.35
2018-03-26T04:22:30.528Z,27.52
2018-03-26T04:24:57.207Z,27.87
2018-03-26T04:27:23.849Z,27.67
2018-03-26T04:29:50.472Z,28.25
2018-03-26T04:32:17.123Z,30.00
2018-03-26T04:34:43.747Z,29.73
2018-03-26T04:37:10.391Z,29.00
2018-03-26T04:39:37.035Z,29.83
2018-03-26T04:42:03.759Z,29.90
2018-03-26T04:44:30.399Z,30.60
2018-03-26T04:46:57.033Z,30.75
2018-03-26T04:49:23.673Z,30.60
2018-03-26T04:51:50.293Z,31.92
2018-03-26T04:54:16.928Z,28.77
2018-03-26T04:56:43.598Z,29.65
2018-03-26T04:59:10.323Z,31.10
2018-03-26T05:01:36.957Z,31.33
2018-03-26T05:04:03.718Z,32.70
2018-03-26T05:06:30.343Z,29.08
2018-03-26T05:08:56.985Z,31.58
2018-03-26T05:11:23.616Z,30.08
2018-03-26T05:13:50.265Z,28.60
2018-03-26T05:16:16.910Z,28.92
2018-03-26T05:18:43.552Z,30.33
2018-03-26T05:21:10.294Z,32.67
2018-03-26T05:23:36.933Z,28.42
2018-03-26T05:26:03.661Z,30.48
2018-03-26T05:28:30.333Z,29.37
2018-03-26T05:30:56.971Z,29.20
2018-03-26T05:33:23.683Z,27.50
2018-03-26T05:35:50.346Z,29.60
2018-03-26T05:38:17.072Z,27.90
2018-03-26T05:40:43.722Z,29.95
2018-03-26T05:43:10.353Z,29.15
2018-03-26T05:45:37.017Z,28.80
2018-03-26T05:48:03.653Z,29.95
2018-03-26T05:50:30.360Z,31.80
2018-03-26T05:52:57.009Z,31.80
2018-03-26T05:55:23.671Z,29.10
2018-03-26T05:57:50.388Z,29.20
2018-03-26T06:00:17.135Z,30.48
2018-03-26T06:02:43.765Z,29.60
2018-03-26T06:05:10.408Z,29.77
2018-03-26T06:07:37.038Z,28.20
2018-03-26T06:10:03.684Z,28.85
2018-03-26T06:12:30.308Z,30.20
2018-03-26T06:14:57.065Z,30.48
2018-03-26T06:17:23.684Z,31.67
2018-03-26T06:19:50.324Z,32.38
2018-03-26T06:22:16.948Z,29.83
2018-03-26T06:24:43.585Z,36.10
2018-03-26T06:27:10.224Z,33.88
2018-03-26T06:29:36.856Z,37.15
2018-03-26T06:32:03.501Z,34.95
2018-03-26T06:34:30.132Z,33.13
2018-03-26T06:37:12.384Z,34.65
2018-03-26T06:39:39.014Z,35.13
2018-03-26T06:42:05.760Z,35.17
2018-03-26T06:44:32.396Z,35.75
2018-03-26T06:46:59.056Z,34.67
2018-03-26T06:49:25.703Z,37.30
2018-03-26T06:51:52.344Z,44.72
2018-03-26T06:54:19.056Z,38.13
2018-03-26T06:56:45.721Z,35.65
2018-03-26T06:59:12.358Z,35.70
2018-03-26T07:01:39.002Z,32.42
2018-03-26T07:04:05.744Z,34.50
2018-03-26T07:06:32.393Z,33.80
2018-03-26T07:08:59.101Z,35.42
2018-03-26T07:11:25.836Z,35.45
2018-03-26T07:13:52.460Z,37.25
2018-03-26T07:16:19.144Z,34.08
2018-03-26T07:18:45.856Z,35.85
2018-03-26T07:21:12.523Z,33.97
2018-03-26T07:23:39.162Z,34.63
2018-03-26T07:26:05.873Z,38.10
2018-03-26T07:28:32.514Z,33.90
2018-03-26T07:30:59.261Z,38.38
2018-03-26T07:33:26.029Z,36.60
2018-03-26T07:35:52.728Z,41.97
2018-03-26T07:38:19.368Z,38.90
2018-03-26T07:40:46.001Z,38.20
2018-03-26T07:43:12.658Z,36.72
2018-03-26T07:45:39.325Z,38.80
2018-03-26T07:48:06.036Z,39.25
2018-03-26T07:50:32.666Z,38.33
2018-03-26T07:52:59.447Z,38.28
2018-03-26T07:55:26.068Z,41.37
2018-03-26T07:57:52.804Z,40.08
2018-03-26T08:00:19.439Z,42.05
2018-03-26T08:02:46.081Z,40.45
2018-03-26T08:05:13.410Z,37.97
2018-03-26T08:07:40.049Z,39.92
2018-03-26T08:10:06.684Z,37.97
2018-03-26T08:12:33.352Z,38.78
2018-03-26T08:15:00.006Z,40.15
2018-03-26T08:17:26.737Z,39.70
2018-03-26T08:19:53.604Z,39.50
2018-03-26T08:22:20.228Z,39.67
2018-03-26T08:24:46.871Z,39.75
2018-03-26T08:27:13.491Z,39.53
2018-03-26T08:29:40.237Z,41.17
2018-03-26T08:32:06.982Z,41.80
2018-03-26T08:34:33.728Z,41.78
2018-03-26T08:37:00.357Z,40.83
2018-03-26T08:39:27.108Z,40.08
2018-03-26T08:41:53.732Z,40.67
2018-03-26T08:44:20.363Z,42.15
2018-03-26T08:46:47.019Z,42.30
2018-03-26T08:49:13.671Z,42.13
2018-03-26T08:51:40.293Z,40.33
2018-03-26T08:54:06.937Z,40.45
2018-03-26T08:56:33.681Z,43.50
2018-03-26T08:59:00.412Z,42.05
2018-03-26T09:01:27.059Z,44.55
2018-03-26T09:03:53.799Z,42.97
2018-03-26T09:06:20.445Z,43.53
2018-03-26T09:08:47.185Z,43.30
2018-03-26T09:11:13.824Z,41.28
2018-03-26T09:13:40.462Z,44.83
2018-03-26T09:16:07.101Z,42.50
2018-03-26T09:18:33.838Z,43.65
2018-03-26T09:21:00.572Z,40.97
2018-03-26T09:23:27.197Z,42.28
2018-03-26T09:25:53.890Z,43.75
2018-03-26T09:28:20.504Z,41.03
2018-03-26T09:30:47.142Z,40.88
2018-03-26T09:33:13.777Z,39.35
2018-03-26T09:35:40.417Z,43.75
2018-03-26T09:38:07.152Z,41.55
2018-03-26T09:40:33.815Z,42.17
2018-03-26T09:43:00.538Z,41.65
2018-03-26T09:45:27.284Z,41.13
2018-03-26T09:47:53.942Z,44.25
2018-03-26T09:50:21.388Z,42.92
2018-03-26T09:52:48.037Z,39.05
2018-03-26T09:55:14.780Z,39.92
2018-03-26T09:57:41.501Z,39.60
2018-03-26T10:00:08.134Z,39.30
2018-03-26T10:02:34.781Z,39.38
2018-03-26T10:05:01.507Z,41.00
2018-03-26T10:07:28.149Z,41.50
2018-03-26T10:09:54.796Z,36.70
2018-03-26T10:12:21.441Z,37.40
2018-03-26T10:14:48.069Z,37.53
2018-03-26T10:17:14.812Z,37.33
2018-03-26T10:19:41.488Z,35.92
2018-03-26T10:22:08.217Z,38.03
2018-03-26T10:24:34.854Z,33.38
2018-03-26T10:27:01.577Z,32.10
2018-03-26T10:29:28.238Z,35.83
2018-03-26T10:31:54.870Z,36.20
2018-03-26T10:34:21.533Z,35.85
2018-03-26T10:36:48.241Z,33.30
2018-03-26T10:39:14.878Z,29.45
2018-03-26T10:41:41.513Z,28.42
2018-03-26T10:44:08.161Z,27.30
2018-03-26T10:46:34.789Z,27.27
2018-03-26T10:49:01.445Z,29.25
2018-03-26T10:51:28.092Z,29.08
2018-03-26T10:53:54.804Z,30.20
2018-03-26T10:56:21.448Z,31.50
2018-03-26T10:58:48.113Z,33.33
2018-03-26T11:01:14.853Z,32.65
2018-03-26T11:03:41.499Z,31.10
2018-03-26T11:06:08.140Z,28.85
2018-03-26T11:08:34.798Z,28.58
2018-03-26T11:11:01.430Z,28.55
2018-03-26T11:13:28.125Z,28.00
2018-03-26T11:15:54.744Z,25.45
2018-03-26T11:18:21.388Z,25.85
2018-03-26T11:20:48.016Z,24.42
2018-03-26T11:23:14.690Z,25.05
2018-03-26T11:25:41.344Z,26.67
2018-03-26T11:28:08.088Z,25.95
2018-03-26T11:30:34.811Z,25.42
2018-03-26T11:33:01.459Z,28.48
2018-03-26T11:35:28.105Z,26.05
2018-03-26T11:37:54.858Z,24.73
2018-03-26T11:40:21.796Z,19.42
2018-03-26T11:42:48.639Z,18.12
2018-03-26T11:45:15.395Z,24.40
2018-03-26T11:47:42.032Z,28.20
2018-03-26T11:50:09.171Z,27.37
2018-03-26T11:52:35.920Z,20.48
2018-03-26T11:55:02.614Z,26.30
2018-03-26T11:57:31.032Z,25.30
2018-03-26T11:59:58.010Z,24.12
2018-03-26T12:02:26.154Z,26.17
2018-03-26T12:04:53.013Z,29.60
2018-03-26T12:07:19.712Z,26.80
2018-03-26T12:09:46.369Z,28.40
2018-03-26T12:12:12.996Z,26.20
2018-03-26T12:14:39.759Z,25.35
2018-03-26T12:17:06.467Z,27.67
2018-03-26T12:19:33.106Z,24.75
2018-03-26T12:21:59.856Z,24.10
2018-03-26T12:24:32.461Z,28.62
2018-03-26T12:26:59.109Z,22.42
2018-03-26T12:29:31.800Z,25.92
2018-03-26T12:31:58.445Z,25.90
2018-03-26T12:34:31.077Z,24.52
2018-03-26T12:36:57.821Z,22.65
2018-03-26T12:39:24.460Z,26.87
2018-03-26T12:41:51.198Z,24.02
2018-03-26T12:44:23.865Z,25.30
2018-03-26T12:46:50.540Z,25.33
2018-03-26T12:49:17.248Z,23.65
2018-03-26T12:51:49.828Z,21.45
2018-03-26T12:54:16.461Z,24.25
2018-03-26T12:56:43.092Z,21.65
2018-03-26T12:59:09.740Z,22.42
2018-03-26T13:01:42.228Z,22.55
2018-03-26T13:04:08.969Z,26.02
2018-03-26T13:06:35.709Z,22.77
2018-03-26T13:09:02.356Z,18.87
2018-03-26T13:11:28.988Z,22.25
2018-03-26T13:13:55.629Z,20.65
2018-03-26T13:16:22.257Z,20.20
2018-03-26T13:18:48.902Z,22.35
2018-03-26T13:21:15.537Z,20.25
2018-03-26T13:23:42.172Z,22.05
2018-03-26T13:26:08.837Z,22.73
2018-03-26T13:28:35.564Z,25.50
2018-03-26T13:31:02.194Z,22.20
2018-03-26T13:33:28.940Z,20.62
2018-03-26T13:35:55.599Z,21.55
2018-03-26T13:38:22.324Z,21.67
2018-03-26T13:40:49.078Z,21.10
2018-03-26T13:43:15.707Z,22.73
2018-03-26T13:45:42.357Z,20.98
2018-03-26T13:48:08.997Z,21.60
2018-03-26T13:50:35.700Z,22.90
2018-03-26T13:53:02.336Z,23.75
2018-03-26T13:55:28.984Z,22.92
2018-03-26T13:57:55.620Z,23.42
2018-03-26T14:00:22.305Z,22.15
2018-03-26T14:02:48.940Z,23.27
2018-03-26T14:05:15.582Z,24.40
2018-03-26T14:07:42.299Z,23.83
2018-03-26T14:10:14.990Z,26.25
2018-03-26T14:12:47.560Z,25.33
2018-03-26T14:15:20.157Z,24.87
2018-03-26T14:17:49.293Z,24.92
2018-03-26T14:20:15.953Z,24.27
2018-03-26T14:22:42.585Z,26.10
2018-03-26T14:25:09.222Z,26.85
2018-03-26T14:27:35.878Z,27.25
2018-03-26T14:30:02.516Z,28.73
2018-03-26T14:32:29.174Z,27.98
2018-03-26T14:35:01.776Z,29.25
2018-03-26T14:37:28.501Z,27.48
2018-03-26T14:39:55.127Z,27.27
2018-03-26T14:42:21.862Z,29.25
2018-03-26T14:44:48.490Z,30.08
2018-03-26T14:47:15.124Z,30.45
2018-03-26T14:49:41.762Z,30.98
2018-03-26T14:52:08.433Z,28.90
2018-03-26T14:54:35.178Z,29.05
2018-03-26T14:57:01.817Z,34.22
2018-03-26T14:59:28.446Z,28.65
2018-03-26T15:01:55.075Z,29.08
2018-03-26T15:04:21.709Z,28.58
2018-03-26T15:06:48.349Z,27.87
2018-03-26T15:09:14.991Z,27.85
2018-03-26T15:11:41.736Z,27.42
2018-03-26T15:14:08.518Z,28.00
2018-03-26T15:16:35.145Z,26.80
2018-03-26T15:19:01.790Z,26.30
2018-03-26T15:21:28.416Z,24.58
2018-03-26T15:23:55.061Z,21.90
2018-03-26T15:26:21.694Z,23.02
2018-03-26T15:28:48.342Z,23.40
2018-03-26T15:31:14.970Z,25.40
2018-03-26T15:33:41.710Z,25.30
2018-03-26T15:36:08.337Z,24.63
2018-03-26T15:38:34.972Z,27.52
2018-03-26T15:41:01.602Z,26.00
2018-03-26T15:43:28.365Z,25.88
2018-03-26T15:45:55.022Z,27.45
2018-03-26T15:48:21.706Z,26.25
2018-03-26T15:50:48.377Z,26.77
2018-03-26T15:53:15.121Z,23.27
2018-03-26T15:55:41.870Z,24.73
2018-03-26T15:58:08.517Z,26.37
2018-03-26T16:00:35.145Z,25.23
2018-03-26T16:03:07.660Z,25.20
2018-03-26T16:05:34.360Z,26.92
2018-03-26T16:08:01.099Z,24.23
2018-03-26T16:10:27.745Z,27.13
2018-03-26T16:12:54.377Z,30.88
2018-03-26T16:15:21.016Z,24.40
2018-03-26T16:17:47.649Z,31.55
2018-03-26T16:20:14.288Z,26.90
2018-03-26T16:22:40.921Z,27.73
2018-03-26T16:25:07.561Z,28.95
2018-03-26T16:27:34.211Z,27.80
2018-03-26T16:30:00.849Z,26.80
2018-03-26T16:32:27.485Z,28.27
2018-03-26T16:34:54.235Z,27.13
2018-03-26T16:37:20.974Z,28.00
2018-03-26T16:39:47.610Z,29.40
2018-03-26T16:42:27.286Z,27.83
2018-03-26T16:44:53.997Z,26.87
2018-03-26T16:47:20.627Z,28.98
2018-03-26T16:49:47.256Z,27.77
2018-03-26T16:52:13.925Z,29.15
2018-03-26T16:54:40.548Z,28.17
2018-03-26T16:57:07.196Z,27.52
2018-03-26T16:59:33.815Z,29.83
2018-03-26T17:02:00.461Z,26.50
2018-03-26T17:04:27.092Z,25.37
2018-03-26T17:06:53.728Z,26.90
2018-03-26T17:09:20.361Z,27.80
2018-03-26T17:11:47.022Z,27.62
2018-03-26T17:14:13.661Z,27.83
2018-03-26T17:16:40.312Z,27.87
2018-03-26T17:19:07.040Z,27.90
2018-03-26T17:21:33.694Z,29.90
2018-03-26T17:24:00.319Z,28.48
2018-03-26T17:26:27.028Z,28.17
2018-03-26T17:28:53.706Z,29.77
2018-03-26T17:31:20.353Z,29.33
2018-03-26T17:33:47.009Z,30.25
2018-03-26T17:36:13.641Z,31.05
2018-03-26T17:38:40.376Z,29.40
2018-03-26T17:41:07.006Z,31.10
2018-03-26T17:43:33.747Z,31.27
2018-03-26T17:46:00.389Z,31.87
2018-03-26T17:48:27.055Z,28.77
2018-03-26T17:50:53.773Z,28.75
2018-03-26T17:53:20.427Z,29.48
2018-03-26T17:55:47.061Z,31.27
2018-03-26T17:58:13.700Z,30.75
2018-03-26T18:00:40.324Z,30.67
2018-03-26T18:03:06.963Z,32.05
2018-03-26T18:05:33.591Z,29.23
2018-03-26T18:08:00.337Z,30.25
2018-03-26T18:10:26.974Z,29.65
2018-03-26T18:12:53.607Z,31.33
2018-03-26T18:15:20.241Z,29.40
2018-03-26T18:17:46.889Z,29.77
2018-03-26T18:20:13.521Z,30.92
2018-03-26T18:22:40.168Z,31.85
2018-03-26T18:25:06.792Z,31.73
2018-03-26T18:27:33.451Z,31.30
2018-03-26T18:30:00.205Z,31.17
2018-03-26T18:32:26.933Z,30.95
2018-03-26T18:34:53.564Z,32.15
2018-03-26T18:37:20.204Z,29.15
2018-03-26T18:39:46.845Z,32.33
2018-03-26T18:42:13.472Z,31.25
2018-03-26T18:44:40.132Z,31.23
2018-03-26T18:47:06.872Z,29.63
2018-03-26T18:49:33.514Z,32.03
2018-03-26T18:52:00.149Z,30.88
2018-03-26T18:54:26.893Z,32.90
2018-03-26T18:56:53.560Z,34.47
2018-03-26T18:59:20.180Z,32.60
2018-03-26T19:01:46.809Z,34.70
2018-03-26T19:04:13.552Z,31.70
2018-03-26T19:06:40.284Z,36.25
2018-03-26T19:09:07.030Z,36.17
2018-03-26T19:11:33.664Z,36.20
2018-03-26T19:14:00.320Z,36.33
2018-03-26T19:16:26.959Z,34.08
2018-03-26T19:18:54.069Z,34.05
2018-03-26T19:21:20.714Z,36.95
2018-03-26T19:23:47.337Z,38.38
2018-03-26T19:26:13.972Z,38.58
2018-03-26T19:28:40.607Z,36.60
2018-03-26T19:31:07.292Z,41.42
2018-03-26T19:33:33.924Z,39.20
2018-03-26T19:36:00.564Z,44.78
2018-03-26T19:38:27.188Z,40.22
2018-03-26T19:40:53.830Z,42.80
2018-03-26T19:43:20.457Z,37.25
2018-03-26T19:45:47.129Z,37.90
2018-03-26T19:48:13.761Z,35.55
2018-03-26T19:50:40.514Z,37.45
2018-03-26T19:53:07.252Z,36.95
2018-03-26T19:55:33.888Z,40.42
2018-03-26T19:58:00.534Z,34.28
2018-03-26T20:00:27.172Z,35.42
2018-03-26T20:02:53.805Z,33.05
2018-03-26T20:05:20.441Z,31.00
2018-03-26T20:07:47.187Z,31.48
2018-03-26T20:10:13.821Z,31.12
2018-03-26T20:12:40.471Z,28.90
2018-03-26T20:15:07.105Z,26.90
2018-03-26T20:17:33.744Z,28.98
2018-03-26T20:20:00.368Z,28.05
2018-03-26T20:22:27.007Z,28.25
2018-03-26T20:24:53.673Z,27.77
2018-03-26T20:27:20.331Z,25.35
2018-03-26T20:29:47.035Z,26.17
2018-03-26T20:32:13.673Z,30.55
2018-03-26T20:34:40.313Z,33.72
2018-03-26T20:37:06.947Z,28.20
2018-03-26T20:39:33.576Z,30.40
2018-03-26T20:42:00.247Z,30.30
2018-03-26T20:44:26.877Z,31.20
2018-03-26T20:46:53.549Z,29.00
2018-03-26T20:49:20.185Z,28.42
2018-03-26T20:51:46.821Z,32.90
2018-03-26T20:54:13.536Z,33.85
2018-03-26T20:56:40.168Z,32.42
2018-03-26T20:59:06.804Z,29.52
2018-03-26T21:01:33.478Z,28.55
2018-03-26T21:04:00.206Z,27.87
2018-03-26T21:06:26.828Z,27.27
2018-03-26T21:08:53.473Z,28.55
2018-03-26T21:11:20.108Z,28.92
2018-03-26T21:13:46.753Z,28.80
2018-03-26T21:16:13.491Z,26.58
2018-03-26T21:18:40.241Z,26.92
2018-03-26T21:21:06.877Z,27.73
2018-03-26T21:23:33.608Z,28.23
2018-03-26T21:26:00.231Z,28.62
2018-03-26T21:28:26.893Z,29.08
2018-03-26T21:30:53.524Z,32.05
2018-03-26T21:33:20.160Z,36.28
2018-03-26T21:35:46.809Z,36.25
2018-03-26T21:38:13.463Z,52.22
2018-03-26T21:40:40.188Z,41.53
2018-03-26T21:43:06.827Z,46.33
2018-03-26T21:45:33.568Z,39.42
2018-03-26T21:48:00.200Z,35.33
2018-03-26T21:50:26.844Z,39.65
2018-03-26T21:52:53.476Z,32.15
2018-03-26T21:55:20.239Z,28.95
2018-03-26T21:57:46.873Z,29.95
2018-03-26T22:00:17.314Z,29.42
2018-03-26T22:02:44.036Z,42.17
2018-03-26T22:05:10.677Z,35.75
2018-03-26T22:07:37.420Z,39.35
2018-03-26T22:10:04.160Z,30.37
2018-03-26T22:12:30.906Z,31.17
2018-03-26T22:14:57.554Z,30.17
2018-03-26T22:17:24.189Z,30.35
2018-03-26T22:19:50.833Z,30.83
2018-03-26T22:22:17.475Z,28.92
2018-03-26T22:24:44.202Z,33.45
2018-03-26T22:27:10.829Z,29.80
2018-03-26T22:29:37.477Z,31.27
2018-03-26T22:32:04.109Z,31.35
2018-03-26T22:34:30.766Z,36.05
2018-03-26T22:36:57.504Z,32.28
2018-03-26T22:39:24.141Z,30.33
2018-03-26T22:41:50.781Z,29.00
2018-03-26T22:44:17.521Z,31.30
2018-03-26T22:46:44.160Z,29.37
2018-03-26T22:49:10.785Z,28.75
2018-03-26T22:51:37.538Z,28.35
2018-03-26T22:54:04.178Z,31.55
2018-03-26T22:56:30.925Z,34.25
2018-03-26T22:58:57.557Z,33.08
2018-03-26T23:01:24.199Z,34.25
2018-03-26T23:03:50.824Z,33.58
2018-03-26T23:06:17.465Z,33.40
2018-03-26T23:08:44.092Z,34.35
2018-03-26T23:11:10.748Z,32.95
2018-03-26T23:13:37.373Z,33.33
2018-03-26T23:16:04.017Z,34.65
2018-03-26T23:18:30.647Z,34.33
2018-03-26T23:20:57.301Z,33.90
2018-03-26T23:23:23.940Z,35.03
2018-03-26T23:25:50.564Z,32.15
2018-03-26T23:28:17.206Z,33.10
2018-03-26T23:30:43.854Z,32.80
2018-03-26T23:33:10.585Z,34.30
2018-03-26T23:35:37.211Z,32.80
2018-03-26T23:38:03.857Z,36.92
2018-03-26T23:40:30.493Z,35.15
2018-03-26T23:42:57.160Z,33.00
2018-03-26T23:45:23.797Z,34.33
2018-03-26T23:47:50.441Z,34.80
2018-03-26T23:50:17.184Z,34.08
2018-03-26T23:52:43.921Z,33.15
2018-03-26T23:55:10.557Z,31.67
2018-03-26T23:57:37.206Z,35.05
